Terminal Aerodrome Forecast
Issued by NWS

Home | Current Version | Previous Version | Text Only | Print | Product List | Glossary On
Versions: 1 2 3 4 5 6 7 8 9 10 11 12 13 14 15 16 17 18 19 20 21 22 23 24
000
FTUS44 KOUN 242321
TAFWWR
TAF
KWWR 242321Z 2500/2524 16013KT P6SM VCSH OVC050
     FM251100 17013KT 6SM -SHRA OVC040 PROB30 2511/2517 4SM -TSRA
      BKN025CB
     FM251700 17014KT 5SM -SHRA OVC025
      TEMPO 2517/2521 2SM TSRA OVC015CB
     FM252100 35014KT 5SM -RA OVC025=

USA.gov is the U.S. government's official web portal to all federal, state and local government web resources and services.